Time;durP1;ratioP1;P1;durP2;ratioP2;P2;SDS_P1;SDS_P2;PMS_P1;PMS_P2;Temp;Humidity;BMP_temperature;BMP_pressure;BME280_temperature;BME280_humidity;BME280_pressure;Samples;Min_cycle;Max_cycle;Signal;HPM_P1;HPM_P2
2023/09/23 00:02:23;;;;;;;;;;;12.20;99.90;;;;;;5087005;28;20168;-77
2023/09/23 00:04:49;;;;;;;;;;;12.20;99.90;;;;;;5083386;28;19959;-76
2023/09/23 00:07:17;;;;;;;;;;;12.20;99.90;;;;;;5088823;28;20099;-76
2023/09/23 00:09:44;;;;;;;;;;;12.20;99.90;;;;;;5082689;28;19920;-76
2023/09/23 00:12:12;;;;;;;;;;;12.20;99.90;;;;;;5083684;28;19952;-77
2023/09/23 00:14:38;;;;;;;;;;;12.20;99.90;;;;;;5085510;28;20247;-77
2023/09/23 00:17:06;;;;;;;;;;;12.20;99.90;;;;;;5085700;28;19926;-76
2023/09/23 00:19:34;;;;;;;;;;;12.20;99.90;;;;;;5083346;28;19921;-76
2023/09/23 00:22:02;;;;;;;;;;;12.20;99.90;;;;;;5083618;28;20113;-76
2023/09/23 00:24:28;;;;;;;;;;;12.20;99.90;;;;;;5081389;28;19956;-74
2023/09/23 00:26:59;;;;;;;;;;;12.10;99.90;;;;;;5083325;28;19927;-75
2023/09/23 00:29:27;;;;;;;;;;;12.10;99.90;;;;;;5080856;28;19950;-75
2023/09/23 00:31:54;;;;;;;;;;;12.10;99.90;;;;;;5083472;28;19920;-75
2023/09/23 00:34:21;;;;;;;;;;;12.10;99.90;;;;;;5084641;28;20118;-74
2023/09/23 00:36:50;;;;;;;;;;;12.10;99.90;;;;;;5086123;28;20153;-75
2023/09/23 00:39:17;;;;;;;;;;;12.00;99.90;;;;;;5083074;28;20222;-75
2023/09/23 00:41:44;;;;;;;;;;;12.10;99.90;;;;;;5082765;28;19942;-75
2023/09/23 00:44:11;;;;;;;;;;;12.00;99.90;;;;;;5082631;28;20241;-75
2023/09/23 00:46:39;;;;;;;;;;;12.00;99.90;;;;;;5082358;28;19952;-75
2023/09/23 00:49:08;;;;;;;;;;;12.00;99.90;;;;;;5086190;28;19981;-76
2023/09/23 00:51:37;;;;;;;;;;;11.90;99.90;;;;;;5083078;28;19983;-75
2023/09/23 00:54:09;;;;;;;;;;;11.90;99.90;;;;;;5083007;28;19920;-75
2023/09/23 00:56:36;;;;;;;;;;;11.90;99.90;;;;;;5082698;28;19927;-76
2023/09/23 00:59:04;;;;;;;;;;;11.90;99.90;;;;;;5017279;28;1873998;-75
2023/09/23 01:01:31;;;;;;;;;;;11.80;99.90;;;;;;5083761;28;19942;-75
2023/09/23 01:03:59;;;;;;;;;;;11.80;99.90;;;;;;5087284;28;19935;-75
2023/09/23 01:06:28;;;;;;;;;;;11.70;99.90;;;;;;5085696;28;19989;-76
2023/09/23 01:08:57;;;;;;;;;;;11.70;99.90;;;;;;5083422;28;20214;-76
2023/09/23 01:11:26;;;;;;;;;;;11.70;99.90;;;;;;5083197;28;19927;-76
2023/09/23 01:13:53;;;;;;;;;;;11.70;99.90;;;;;;5083653;28;19984;-76
2023/09/23 01:16:21;;;;;;;;;;;11.70;99.90;;;;;;5085613;28;20269;-76
2023/09/23 01:18:49;;;;;;;;;;;11.60;99.90;;;;;;5087119;28;19920;-76
2023/09/23 01:21:18;;;;;;;;;;;11.60;99.90;;;;;;5093373;28;19920;-76
2023/09/23 01:23:46;;;;;;;;;;;11.60;99.90;;;;;;5083770;28;19920;-75
2023/09/23 01:26:13;;;;;;;;;;;11.60;99.90;;;;;;5081924;28;19920;-76
2023/09/23 01:28:40;;;;;;;;;;;11.50;99.90;;;;;;5083212;28;19952;-75
2023/09/23 01:31:07;;;;;;;;;;;11.50;99.90;;;;;;5083290;28;19951;-75
2023/09/23 01:33:34;;;;;;;;;;;11.40;99.90;;;;;;5083295;28;20248;-75
2023/09/23 01:36:03;;;;;;;;;;;11.40;99.90;;;;;;5084450;28;19920;-75
2023/09/23 01:38:29;;;;;;;;;;;11.40;99.90;;;;;;5087496;28;19921;-75
2023/09/23 01:40:57;;;;;;;;;;;11.40;99.90;;;;;;5087469;28;19921;-74
2023/09/23 01:43:25;;;;;;;;;;;11.50;99.90;;;;;;5087564;28;19952;-75
2023/09/23 01:45:52;;;;;;;;;;;11.40;99.90;;;;;;5087065;28;20140;-75
2023/09/23 01:48:19;;;;;;;;;;;11.40;99.90;;;;;;5087468;28;20206;-75
2023/09/23 01:50:49;;;;;;;;;;;11.40;99.90;;;;;;5086280;28;19928;-75
2023/09/23 01:53:21;;;;;;;;;;;11.40;99.90;;;;;;5088065;28;19956;-75
2023/09/23 01:55:48;;;;;;;;;;;11.40;99.90;;;;;;5082092;28;19988;-76
2023/09/23 01:58:16;;;;;;;;;;;11.40;99.90;;;;;;5086828;28;19951;-76
2023/09/23 02:00:42;;;;;;;;;;;11.40;99.90;;;;;;5086791;28;20273;-76
2023/09/23 02:03:10;;;;;;;;;;;11.30;99.90;;;;;;5087110;28;19988;-76
2023/09/23 02:05:37;;;;;;;;;;;11.40;99.90;;;;;;5086570;28;19924;-75
2023/09/23 02:08:03;;;;;;;;;;;11.40;99.90;;;;;;5087035;28;19961;-76
2023/09/23 02:10:30;;;;;;;;;;;11.40;99.90;;;;;;5087045;28;20246;-76
2023/09/23 02:12:58;;;;;;;;;;;11.40;99.90;;;;;;5086873;28;19920;-75
2023/09/23 02:15:26;;;;;;;;;;;11.40;99.90;;;;;;5085725;28;19924;-76
2023/09/23 02:17:53;;;;;;;;;;;11.40;99.90;;;;;;5086621;28;19980;-75
2023/09/23 02:20:22;;;;;;;;;;;11.40;99.90;;;;;;5086610;28;20206;-76
2023/09/23 02:22:50;;;;;;;;;;;11.40;99.90;;;;;;5086751;28;19921;-76
2023/09/23 02:25:16;;;;;;;;;;;11.40;99.90;;;;;;5084437;28;19939;-76
2023/09/23 02:27:44;;;;;;;;;;;11.40;99.90;;;;;;5086320;28;19979;-76
2023/09/23 02:30:11;;;;;;;;;;;11.40;99.90;;;;;;5086435;28;19920;-76
2023/09/23 02:32:40;;;;;;;;;;;11.40;99.90;;;;;;5086203;28;19977;-75
2023/09/23 02:35:10;;;;;;;;;;;11.30;99.90;;;;;;5085913;28;19943;-76
2023/09/23 02:37:37;;;;;;;;;;;11.30;99.90;;;;;;5086207;28;19963;-76
2023/09/23 02:40:11;;;;;;;;;;;11.30;99.90;;;;;;5091263;28;19960;-75
2023/09/23 02:42:42;;;;;;;;;;;11.30;99.90;;;;;;5086387;28;19921;-75
2023/09/23 02:45:12;;;;;;;;;;;11.30;99.90;;;;;;5087199;28;20257;-75
2023/09/23 02:47:40;;;;;;;;;;;11.20;99.90;;;;;;5090244;28;19962;-75
2023/09/23 02:50:09;;;;;;;;;;;11.20;99.90;;;;;;5091216;28;19920;-75
2023/09/23 02:52:37;;;;;;;;;;;11.20;99.90;;;;;;5090800;28;19921;-75
2023/09/23 02:55:04;;;;;;;;;;;11.20;99.90;;;;;;5085328;28;20210;-75
2023/09/23 02:57:31;;;;;;;;;;;11.20;99.90;;;;;;5085977;28;20162;-75
2023/09/23 02:59:59;;;;;;;;;;;11.10;99.90;;;;;;5095622;28;20198;-74
2023/09/23 03:02:28;;;;;;;;;;;11.10;99.90;;;;;;5095860;28;19952;-75
2023/09/23 03:05:04;;;;;;;;;;;11.10;99.90;;;;;;5085383;28;20203;-74
2023/09/23 03:07:33;;;;;;;;;;;11.10;99.90;;;;;;5085906;28;20141;-75
2023/09/23 03:10:01;;;;;;;;;;;11.10;99.90;;;;;;5085727;28;19920;-75
2023/09/23 03:12:29;;;;;;;;;;;11.10;99.90;;;;;;5085812;28;19920;-75
2023/09/23 03:14:59;;;;;;;;;;;11.10;99.90;;;;;;5084345;28;19924;-75
2023/09/23 03:17:27;;;;;;;;;;;11.00;99.90;;;;;;5085473;28;19921;-76
2023/09/23 03:19:53;;;;;;;;;;;11.00;99.90;;;;;;5085506;28;20214;-75
2023/09/23 03:22:21;;;;;;;;;;;11.00;99.90;;;;;;5085576;28;19927;-75
2023/09/23 03:24:48;;;;;;;;;;;10.90;99.90;;;;;;5089713;28;19928;-75
2023/09/23 03:27:16;;;;;;;;;;;11.00;99.90;;;;;;5085451;28;19966;-74
2023/09/23 03:29:43;;;;;;;;;;;10.90;99.90;;;;;;5085422;28;19920;-76
2023/09/23 03:32:09;;;;;;;;;;;10.90;99.90;;;;;;5085390;28;20146;-76
2023/09/23 03:34:37;;;;;;;;;;;10.90;99.90;;;;;;5084926;28;19920;-75
2023/09/23 03:37:04;;;;;;;;;;;10.90;99.90;;;;;;5085253;28;19927;-75
2023/09/23 03:39:33;;;;;;;;;;;10.90;99.90;;;;;;5085204;28;19927;-75
2023/09/23 03:41:59;;;;;;;;;;;10.90;99.90;;;;;;5085131;28;19921;-74
2023/09/23 03:44:26;;;;;;;;;;;10.90;99.90;;;;;;5087273;28;19920;-76
2023/09/23 03:46:53;;;;;;;;;;;10.90;99.90;;;;;;5084694;28;19992;-75
2023/09/23 03:49:21;;;;;;;;;;;10.90;99.90;;;;;;5089791;28;19920;-76
2023/09/23 03:51:48;;;;;;;;;;;10.80;99.90;;;;;;5080395;28;19921;-75
2023/09/23 03:54:16;;;;;;;;;;;10.80;99.90;;;;;;5084695;28;19987;-76
2023/09/23 03:56:44;;;;;;;;;;;10.80;99.90;;;;;;5084349;28;19963;-76
2023/09/23 03:59:10;;;;;;;;;;;10.80;99.90;;;;;;5088911;28;19962;-76
2023/09/23 04:01:38;;;;;;;;;;;10.70;99.90;;;;;;5084810;28;19926;-76
2023/09/23 04:04:06;;;;;;;;;;;10.70;99.90;;;;;;5084360;28;19927;-76
2023/09/23 04:06:34;;;;;;;;;;;10.70;99.90;;;;;;5087243;28;19956;-75
2023/09/23 04:09:00;;;;;;;;;;;10.70;99.90;;;;;;5085049;28;19927;-75
2023/09/23 04:11:27;;;;;;;;;;;10.60;99.90;;;;;;5086732;28;19920;-76
2023/09/23 04:13:55;;;;;;;;;;;10.60;99.90;;;;;;5084665;28;20178;-75
2023/09/23 04:16:22;;;;;;;;;;;10.60;99.90;;;;;;5083637;28;19984;-76
2023/09/23 04:18:51;;;;;;;;;;;10.70;99.90;;;;;;5084440;28;19963;-75
2023/09/23 04:21:20;;;;;;;;;;;10.60;99.90;;;;;;5084201;28;20371;-76
2023/09/23 04:23:48;;;;;;;;;;;10.60;99.90;;;;;;5079532;28;19920;-75
2023/09/23 04:26:15;;;;;;;;;;;10.60;99.90;;;;;;5085881;28;19943;-75
2023/09/23 04:28:43;;;;;;;;;;;10.60;99.90;;;;;;5090949;28;19920;-75
2023/09/23 04:31:12;;;;;;;;;;;10.60;99.90;;;;;;5084295;28;20122;-74
2023/09/23 04:33:39;;;;;;;;;;;10.60;99.90;;;;;;5083945;28;20210;-74
2023/09/23 04:36:09;;;;;;;;;;;10.60;99.90;;;;;;5083403;28;20225;-74
2023/09/23 04:38:36;;;;;;;;;;;10.60;99.90;;;;;;5083654;28;19920;-75
2023/09/23 04:41:02;;;;;;;;;;;10.60;99.90;;;;;;5089125;28;19920;-75
2023/09/23 04:43:30;;;;;;;;;;;10.50;99.90;;;;;;5089197;28;19983;-75
2023/09/23 04:45:57;;;;;;;;;;;10.50;99.90;;;;;;5083259;28;20252;-74
2023/09/23 04:48:25;;;;;;;;;;;10.50;99.90;;;;;;5083962;28;19924;-75
2023/09/23 04:50:55;;;;;;;;;;;10.50;99.90;;;;;;5083875;28;19920;-75
2023/09/23 04:53:22;;;;;;;;;;;10.50;99.90;;;;;;5080878;28;19921;-75
2023/09/23 04:55:48;;;;;;;;;;;10.50;99.90;;;;;;5083410;28;19987;-75
2023/09/23 04:58:15;;;;;;;;;;;10.40;99.90;;;;;;5085988;28;19928;-75
2023/09/23 05:00:42;;;;;;;;;;;10.40;99.90;;;;;;5084063;28;19987;-75
2023/09/23 05:03:09;;;;;;;;;;;10.40;99.90;;;;;;5083742;28;20122;-76
2023/09/23 05:05:37;;;;;;;;;;;10.40;99.90;;;;;;5088150;28;19921;-76
2023/09/23 05:08:05;;;;;;;;;;;10.40;99.90;;;;;;5086750;28;20261;-75
2023/09/23 05:10:32;;;;;;;;;;;10.40;99.90;;;;;;5081862;28;20149;-75
2023/09/23 05:12:58;;;;;;;;;;;10.40;99.90;;;;;;5083798;28;19920;-75
2023/09/23 05:15:25;;;;;;;;;;;10.40;99.90;;;;;;5082716;28;19988;-75
2023/09/23 05:17:52;;;;;;;;;;;10.40;99.90;;;;;;5083370;28;20284;-75
2023/09/23 05:20:21;;;;;;;;;;;10.40;99.90;;;;;;5083576;28;20140;-75
2023/09/23 05:22:49;;;;;;;;;;;10.40;99.90;;;;;;5083479;28;19927;-76
2023/09/23 05:25:16;;;;;;;;;;;10.40;99.90;;;;;;5081464;28;19988;-73
2023/09/23 05:27:43;;;;;;;;;;;10.40;99.90;;;;;;5083286;28;19976;-76
2023/09/23 05:30:11;;;;;;;;;;;10.40;99.90;;;;;;5083709;28;19979;-76
2023/09/23 05:32:38;;;;;;;;;;;10.40;99.90;;;;;;5083110;28;19946;-76
2023/09/23 05:35:05;;;;;;;;;;;10.40;99.90;;;;;;5082824;28;19920;-75
2023/09/23 05:37:32;;;;;;;;;;;10.50;99.90;;;;;;5083270;28;19928;-76
2023/09/23 05:40:00;;;;;;;;;;;10.40;99.90;;;;;;5086704;28;19920;-76
2023/09/23 05:42:26;;;;;;;;;;;10.50;99.90;;;;;;5083225;28;20151;-75
2023/09/23 05:44:53;;;;;;;;;;;10.50;99.90;;;;;;5082948;28;19983;-76
2023/09/23 05:47:20;;;;;;;;;;;10.50;99.90;;;;;;5083186;28;19932;-76
2023/09/23 05:49:46;;;;;;;;;;;10.60;99.90;;;;;;5075302;28;20261;-76
2023/09/23 05:52:14;;;;;;;;;;;10.50;99.90;;;;;;5083529;28;19920;-76
2023/09/23 05:54:41;;;;;;;;;;;10.60;99.90;;;;;;5082962;28;20002;-76
2023/09/23 05:57:09;;;;;;;;;;;10.60;99.90;;;;;;5087995;28;20253;-76
2023/09/23 05:59:35;;;;;;;;;;;10.60;99.90;;;;;;5082863;28;19920;-75
2023/09/23 06:02:06;;;;;;;;;;;10.70;99.90;;;;;;5083359;28;19984;-75
2023/09/23 06:04:32;;;;;;;;;;;10.70;99.90;;;;;;5082878;28;19920;-76
2023/09/23 06:06:59;;;;;;;;;;;10.80;99.90;;;;;;5083281;28;19920;-75
2023/09/23 06:09:26;;;;;;;;;;;10.70;99.90;;;;;;5086524;28;20144;-76
2023/09/23 06:11:54;;;;;;;;;;;10.70;99.90;;;;;;5089980;28;19924;-75
2023/09/23 06:14:22;;;;;;;;;;;10.70;99.90;;;;;;5086158;28;19934;-76
2023/09/23 06:16:49;;;;;;;;;;;10.70;99.90;;;;;;5082494;28;20260;-76
2023/09/23 06:19:16;;;;;;;;;;;10.80;99.90;;;;;;5082989;28;19924;-76
2023/09/23 06:21:42;;;;;;;;;;;10.80;99.90;;;;;;5083924;28;19927;-76
2023/09/23 06:24:10;;;;;;;;;;;10.80;99.90;;;;;;5087452;28;19921;-76
2023/09/23 06:26:37;;;;;;;;;;;10.80;99.90;;;;;;5085352;28;19958;-76
2023/09/23 06:29:05;;;;;;;;;;;10.90;99.90;;;;;;5086486;28;19927;-77
2023/09/23 06:31:33;;;;;;;;;;;10.90;99.90;;;;;;5086541;28;20185;-76
2023/09/23 06:34:00;;;;;;;;;;;10.90;99.90;;;;;;5086656;28;20006;-76
2023/09/23 06:36:27;;;;;;;;;;;11.00;99.90;;;;;;5085985;28;19979;-77
2023/09/23 06:38:53;;;;;;;;;;;11.00;99.90;;;;;;5089514;28;19984;-76
2023/09/23 06:41:20;;;;;;;;;;;11.00;99.90;;;;;;5086561;28;19991;-76
2023/09/23 06:43:46;;;;;;;;;;;11.10;99.90;;;;;;5086194;28;20210;-76
2023/09/23 06:46:13;;;;;;;;;;;11.10;99.90;;;;;;5085795;28;19920;-75
2023/09/23 06:48:41;;;;;;;;;;;11.10;99.90;;;;;;5086247;28;20169;-75
2023/09/23 06:51:08;;;;;;;;;;;11.10;99.90;;;;;;5086109;28;19955;-75
2023/09/23 06:53:35;;;;;;;;;;;11.10;99.90;;;;;;5086341;28;19920;-76
2023/09/23 06:56:01;;;;;;;;;;;11.10;99.90;;;;;;5086238;28;19984;-75
2023/09/23 06:58:28;;;;;;;;;;;11.10;99.90;;;;;;5086075;28;19920;-76
2023/09/23 07:00:55;;;;;;;;;;;11.20;99.90;;;;;;5085990;28;19980;-76
2023/09/23 07:03:22;;;;;;;;;;;11.20;99.90;;;;;;5086381;28;19978;-76
2023/09/23 07:05:50;;;;;;;;;;;11.20;99.90;;;;;;5085352;28;19956;-75
2023/09/23 07:08:16;;;;;;;;;;;11.20;99.90;;;;;;5085764;28;19959;-75
2023/09/23 07:10:43;;;;;;;;;;;11.20;99.90;;;;;;5085446;28;19927;-76
2023/09/23 07:13:09;;;;;;;;;;;11.30;99.90;;;;;;5085781;28;19988;-75
2023/09/23 07:15:37;;;;;;;;;;;11.40;99.90;;;;;;5084009;28;19955;-75
2023/09/23 07:18:04;;;;;;;;;;;11.40;99.90;;;;;;5085127;28;19921;-75
2023/09/23 07:20:31;;;;;;;;;;;11.40;99.90;;;;;;5085619;28;19956;-75
2023/09/23 07:23:00;;;;;;;;;;;11.40;99.90;;;;;;5085586;28;19983;-75
2023/09/23 07:25:26;;;;;;;;;;;11.50;99.90;;;;;;5085066;28;19927;-75
2023/09/23 07:27:53;;;;;;;;;;;11.50;99.90;;;;;;5087968;28;19952;-75
2023/09/23 07:30:20;;;;;;;;;;;11.60;99.90;;;;;;5085431;28;19988;-75
2023/09/23 07:32:46;;;;;;;;;;;11.70;99.90;;;;;;5088982;28;19921;-75
2023/09/23 07:35:13;;;;;;;;;;;11.80;99.90;;;;;;5084441;28;20117;-75
2023/09/23 07:37:41;;;;;;;;;;;11.80;99.90;;;;;;5084862;28;19920;-75
2023/09/23 07:40:10;;;;;;;;;;;11.80;99.90;;;;;;5085324;28;19992;-75
2023/09/23 07:42:36;;;;;;;;;;;11.90;99.90;;;;;;5085221;28;19959;-74
2023/09/23 07:45:03;;;;;;;;;;;12.00;99.90;;;;;;5083408;28;20298;-76
2023/09/23 07:47:30;;;;;;;;;;;12.00;99.90;;;;;;5093773;28;20122;-75
2023/09/23 07:49:57;;;;;;;;;;;12.10;99.90;;;;;;5088326;28;19928;-73
2023/09/23 07:52:24;;;;;;;;;;;12.10;99.90;;;;;;5084794;28;19921;-76
2023/09/23 07:54:51;;;;;;;;;;;12.10;99.90;;;;;;5089531;28;19920;-75
2023/09/23 07:57:19;;;;;;;;;;;12.20;99.90;;;;;;5084565;28;19920;-75
2023/09/23 07:59:45;;;;;;;;;;;12.20;99.90;;;;;;5084593;28;20261;-74
2023/09/23 08:02:12;;;;;;;;;;;12.30;99.90;;;;;;5084530;28;19920;-75
2023/09/23 08:04:39;;;;;;;;;;;12.40;99.90;;;;;;5083893;28;20276;-74
2023/09/23 08:07:06;;;;;;;;;;;12.50;99.90;;;;;;5084590;28;19963;-73
2023/09/23 08:09:33;;;;;;;;;;;12.60;99.90;;;;;;5084337;28;20234;-74
2023/09/23 08:11:59;;;;;;;;;;;12.70;99.90;;;;;;5084686;28;19987;-74
2023/09/23 08:14:27;;;;;;;;;;;12.90;99.90;;;;;;5084298;28;20022;-76
2023/09/23 08:16:54;;;;;;;;;;;12.90;99.90;;;;;;5084242;28;19966;-76
2023/09/23 08:19:20;;;;;;;;;;;13.00;99.90;;;;;;5084534;28;20121;-76
2023/09/23 08:21:47;;;;;;;;;;;13.00;99.90;;;;;;5079622;28;19952;-76
2023/09/23 08:24:14;;;;;;;;;;;13.00;99.90;;;;;;5084594;28;19921;-75
2023/09/23 08:26:40;;;;;;;;;;;13.10;99.90;;;;;;5083959;28;20214;-76
2023/09/23 08:29:07;;;;;;;;;;;13.10;99.90;;;;;;5084244;28;20241;-76
2023/09/23 08:31:35;;;;;;;;;;;13.20;99.90;;;;;;5084164;28;20214;-76
2023/09/23 08:34:04;;;;;;;;;;;13.20;99.90;;;;;;5084261;28;20311;-76
2023/09/23 08:36:31;;;;;;;;;;;13.30;99.90;;;;;;5083916;28;19958;-76
2023/09/23 08:38:58;;;;;;;;;;;13.30;99.90;;;;;;5084124;28;20146;-72
2023/09/23 08:41:25;;;;;;;;;;;13.40;99.90;;;;;;5084057;28;19956;-72
2023/09/23 08:43:52;;;;;;;;;;;13.40;99.90;;;;;;5083767;28;19924;-72
2023/09/23 08:46:19;;;;;;;;;;;13.50;99.90;;;;;;5083086;28;19920;-76
2023/09/23 08:48:47;;;;;;;;;;;13.50;99.90;;;;;;5083749;28;20163;-73
2023/09/23 08:51:14;;;;;;;;;;;13.50;99.90;;;;;;5083458;28;20376;-73
2023/09/23 08:53:42;;;;;;;;;;;13.40;99.90;;;;;;5083581;28;20214;-73
2023/09/23 08:56:09;;;;;;;;;;;13.50;99.90;;;;;;5083004;28;20293;-73
2023/09/23 08:58:35;;;;;;;;;;;13.50;99.90;;;;;;5083530;28;20000;-73
2023/09/23 09:01:02;;;;;;;;;;;13.40;99.90;;;;;;5079875;28;19951;-72
2023/09/23 09:03:29;;;;;;;;;;;13.40;99.90;;;;;;5079671;28;19921;-73
2023/09/23 09:05:58;;;;;;;;;;;13.40;99.90;;;;;;5080155;28;19955;-73
2023/09/23 09:08:26;;;;;;;;;;;13.40;99.90;;;;;;5080870;28;20004;-76
2023/09/23 09:10:52;;;;;;;;;;;13.40;99.90;;;;;;5087867;28;19966;-75
2023/09/23 09:13:19;;;;;;;;;;;13.40;99.90;;;;;;5088297;28;19944;-76
2023/09/23 09:15:45;;;;;;;;;;;13.40;99.90;;;;;;5088231;28;19979;-76
2023/09/23 09:18:12;;;;;;;;;;;13.40;99.90;;;;;;5083296;28;20009;-76
2023/09/23 09:20:40;;;;;;;;;;;13.50;99.90;;;;;;5083578;28;19951;-76
2023/09/23 09:23:08;;;;;;;;;;;13.50;99.90;;;;;;5083250;28;19928;-76
2023/09/23 09:25:35;;;;;;;;;;;13.50;99.90;;;;;;5086587;28;19952;-76
2023/09/23 09:28:02;;;;;;;;;;;13.50;99.90;;;;;;5087629;28;19959;-76
2023/09/23 09:30:29;;;;;;;;;;;13.60;99.90;;;;;;5085897;28;20233;-76
2023/09/23 09:32:58;;;;;;;;;;;13.70;99.90;;;;;;5083575;28;19920;-76
2023/09/23 09:35:27;;;;;;;;;;;13.70;99.90;;;;;;5079994;28;19958;-76
2023/09/23 09:37:55;;;;;;;;;;;13.80;99.90;;;;;;5083335;28;20253;-76
2023/09/23 09:40:24;;;;;;;;;;;13.80;99.90;;;;;;5093478;28;19988;-74
2023/09/23 09:42:53;;;;;;;;;;;13.80;99.90;;;;;;5087830;28;19955;-75
2023/09/23 09:45:20;;;;;;;;;;;13.90;99.90;;;;;;5091843;28;19962;-76
2023/09/23 09:47:48;;;;;;;;;;;13.90;99.90;;;;;;5078595;28;19991;-75
2023/09/23 09:50:15;;;;;;;;;;;14.00;99.90;;;;;;5086494;28;19920;-76
2023/09/23 09:52:43;;;;;;;;;;;14.20;99.90;;;;;;5083138;28;19952;-75
2023/09/23 09:55:11;;;;;;;;;;;14.30;99.90;;;;;;5082896;28;19966;-75
2023/09/23 09:57:39;;;;;;;;;;;14.50;99.90;;;;;;5085838;28;19952;-75
2023/09/23 10:00:15;;;;;;;;;;;14.50;99.90;;;;;;5086552;28;20291;-75
2023/09/23 10:02:42;;;;;;;;;;;14.60;99.90;;;;;;5089236;28;19924;-76
2023/09/23 10:05:15;;;;;;;;;;;14.70;99.90;;;;;;5085623;28;19920;-75
2023/09/23 10:07:54;;;;;;;;;;;14.70;99.90;;;;;;5086029;28;19951;-75
2023/09/23 10:10:30;;;;;;;;;;;14.80;99.90;;;;;;5086909;28;19962;-75
2023/09/23 10:12:59;;;;;;;;;;;14.90;99.90;;;;;;5087009;28;19928;-76
2023/09/23 10:15:27;;;;;;;;;;;14.90;99.90;;;;;;5083629;28;19927;-76
2023/09/23 10:17:54;;;;;;;;;;;15.00;99.90;;;;;;5086593;28;20260;-75
2023/09/23 10:20:24;;;;;;;;;;;15.10;99.90;;;;;;5086642;28;19943;-75
2023/09/23 10:22:52;;;;;;;;;;;15.30;99.90;;;;;;5086694;28;19921;-75
2023/09/23 10:25:19;;;;;;;;;;;15.30;99.90;;;;;;5086305;28;19920;-76
2023/09/23 10:27:56;;;;;;;;;;;15.30;99.90;;;;;;5086495;28;19976;-75
2023/09/23 10:30:26;;;;;;;;;;;15.20;99.90;;;;;;5083635;28;19921;-75
2023/09/23 10:32:52;;;;;;;;;;;15.20;99.90;;;;;;5086346;28;19921;-75
2023/09/23 10:35:22;;;;;;;;;;;15.30;99.90;;;;;;5086973;28;20234;-75
2023/09/23 10:37:49;;;;;;;;;;;15.30;99.90;;;;;;5082114;28;20019;-75
2023/09/23 10:40:17;;;;;;;;;;;15.40;99.90;;;;;;5086482;28;19943;-75
2023/09/23 10:42:46;;;;;;;;;;;15.40;99.90;;;;;;5086296;28;19920;-76
2023/09/23 10:45:13;;;;;;;;;;;15.30;99.90;;;;;;5085645;28;20133;-76
2023/09/23 10:47:43;;;;;;;;;;;15.30;99.90;;;;;;5086017;28;19963;-76
2023/09/23 10:50:10;;;;;;;;;;;15.30;99.90;;;;;;5086366;28;20121;-76
2023/09/23 10:52:37;;;;;;;;;;;15.30;99.90;;;;;;5086275;28;19963;-75
2023/09/23 10:55:04;;;;;;;;;;;15.20;99.90;;;;;;5085800;28;19956;-75
2023/09/23 10:57:31;;;;;;;;;;;15.10;99.90;;;;;;5085837;28;19928;-76
2023/09/23 10:59:57;;;;;;;;;;;15.10;99.90;;;;;;5086088;28;19921;-75
2023/09/23 11:02:24;;;;;;;;;;;15.10;99.90;;;;;;5088699;28;19959;-76
2023/09/23 11:04:54;;;;;;;;;;;15.10;99.90;;;;;;5085674;28;19920;-76
2023/09/23 11:07:21;;;;;;;;;;;15.10;99.90;;;;;;5088372;28;19971;-76
2023/09/23 11:09:47;;;;;;;;;;;15.20;99.90;;;;;;5085888;28;19956;-76
2023/09/23 11:12:15;;;;;;;;;;;15.30;99.90;;;;;;5085590;28;19983;-76
2023/09/23 11:14:42;;;;;;;;;;;15.50;99.90;;;;;;5093228;28;19931;-76
2023/09/23 11:17:19;;;;;;;;;;;15.90;99.90;;;;;;5097612;28;19955;-76
2023/09/23 11:19:53;;;;;;;;;;;16.00;99.90;;;;;;5085809;28;19920;-76
2023/09/23 11:22:23;;;;;;;;;;;16.00;99.90;;;;;;5085795;28;20118;-76
2023/09/23 11:24:49;;;;;;;;;;;16.10;99.90;;;;;;5080327;28;19932;-75
2023/09/23 11:27:17;;;;;;;;;;;16.30;99.90;;;;;;5085614;28;19962;-76
2023/09/23 11:29:43;;;;;;;;;;;16.60;99.90;;;;;;5085570;28;19921;-75
2023/09/23 11:32:10;;;;;;;;;;;16.90;99.90;;;;;;5085506;28;19987;-75
2023/09/23 11:34:36;;;;;;;;;;;17.10;99.90;;;;;;5084994;28;20183;-76
2023/09/23 11:37:04;;;;;;;;;;;17.40;99.90;;;;;;5086489;28;19920;-75
2023/09/23 11:39:32;;;;;;;;;;;17.80;99.90;;;;;;5090648;28;19920;-75
2023/09/23 11:41:59;;;;;;;;;;;18.00;99.90;;;;;;5085173;28;20206;-75
2023/09/23 11:44:25;;;;;;;;;;;18.00;99.90;;;;;;5085192;28;19988;-75
2023/09/23 11:46:52;;;;;;;;;;;17.80;99.90;;;;;;5084920;28;19943;-75
2023/09/23 11:49:19;;;;;;;;;;;17.60;99.90;;;;;;5085255;28;19927;-76
2023/09/23 11:51:45;;;;;;;;;;;17.40;99.90;;;;;;5085091;28;19927;-75
2023/09/23 11:54:14;;;;;;;;;;;17.10;99.90;;;;;;5084946;28;20121;-76
2023/09/23 11:56:40;;;;;;;;;;;16.90;99.90;;;;;;5084706;28;19924;-74
2023/09/23 11:59:07;;;;;;;;;;;16.70;99.90;;;;;;5088350;28;19971;-75
2023/09/23 12:01:34;;;;;;;;;;;16.60;99.90;;;;;;5084690;28;19981;-75
2023/09/23 12:04:01;;;;;;;;;;;16.40;99.90;;;;;;5084945;28;19958;-75
2023/09/23 12:06:29;;;;;;;;;;;16.30;99.90;;;;;;5083922;28;20286;-75
2023/09/23 12:08:55;;;;;;;;;;;16.20;99.90;;;;;;5084631;28;19959;-75
2023/09/23 12:11:23;;;;;;;;;;;16.20;99.90;;;;;;5084107;28;20149;-75
2023/09/23 12:13:52;;;;;;;;;;;16.20;99.90;;;;;;5084425;28;20190;-75
2023/09/23 12:16:18;;;;;;;;;;;16.20;99.90;;;;;;5084192;28;19920;-75
2023/09/23 12:18:46;;;;;;;;;;;16.30;99.90;;;;;;5083993;28;19983;-75
2023/09/23 12:21:13;;;;;;;;;;;16.30;99.90;;;;;;5084090;28;19920;-75
2023/09/23 12:23:41;;;;;;;;;;;16.30;99.90;;;;;;5087965;28;19970;-76
2023/09/23 12:26:09;;;;;;;;;;;16.40;99.90;;;;;;5088867;28;19921;-74
2023/09/23 12:28:37;;;;;;;;;;;16.30;99.90;;;;;;5084257;28;20179;-75
2023/09/23 12:31:04;;;;;;;;;;;16.40;99.90;;;;;;5084243;28;19987;-74
2023/09/23 12:33:31;;;;;;;;;;;16.30;99.90;;;;;;5083826;28;19983;-73
2023/09/23 12:35:58;;;;;;;;;;;16.30;99.90;;;;;;5083280;28;20184;-72
2023/09/23 12:38:25;;;;;;;;;;;16.30;99.90;;;;;;5083521;28;19926;-73
2023/09/23 12:40:51;;;;;;;;;;;16.30;99.90;;;;;;5087899;28;19920;-74
2023/09/23 12:43:18;;;;;;;;;;;16.30;99.90;;;;;;5087625;28;19920;-74
2023/09/23 12:45:46;;;;;;;;;;;16.50;99.90;;;;;;5090538;28;20291;-74
2023/09/23 12:48:12;;;;;;;;;;;16.70;99.90;;;;;;5087293;28;19958;-74
2023/09/23 12:50:39;;;;;;;;;;;16.70;99.90;;;;;;5079118;28;19921;-74
2023/09/23 12:53:06;;;;;;;;;;;16.70;99.90;;;;;;5083164;28;19920;-73
2023/09/23 12:55:33;;;;;;;;;;;16.60;99.90;;;;;;5096488;28;19956;-73
2023/09/23 12:57:59;;;;;;;;;;;16.60;99.90;;;;;;5091656;28;19921;-74
2023/09/23 13:00:26;;;;;;;;;;;16.60;99.90;;;;;;5088416;28;19955;-74
2023/09/23 13:02:54;;;;;;;;;;;16.50;99.90;;;;;;5083729;28;19966;-74
2023/09/23 13:05:21;;;;;;;;;;;16.50;99.90;;;;;;5083147;28;19956;-72
2023/09/23 13:07:47;;;;;;;;;;;16.50;99.90;;;;;;5083614;28;19979;-73
2023/09/23 13:10:14;;;;;;;;;;;16.60;99.90;;;;;;5083295;28;20228;-74
2023/09/23 13:12:41;;;;;;;;;;;16.60;99.90;;;;;;5082794;28;19939;-74
2023/09/23 13:15:08;;;;;;;;;;;16.70;99.90;;;;;;5083106;28;19983;-74
2023/09/23 13:17:35;;;;;;;;;;;17.00;99.90;;;;;;5083219;28;19988;-74
2023/09/23 13:20:03;;;;;;;;;;;17.40;99.90;;;;;;5082543;28;19920;-74
2023/09/23 13:22:31;;;;;;;;;;;17.80;99.90;;;;;;5083588;28;19921;-74
2023/09/23 13:24:57;;;;;;;;;;;18.10;99.90;;;;;;5082957;28;19921;-74
2023/09/23 13:27:24;;;;;;;;;;;18.40;99.90;;;;;;5088510;28;19958;-74
2023/09/23 13:29:51;;;;;;;;;;;18.60;99.90;;;;;;5083151;28;20288;-74
2023/09/23 13:32:17;;;;;;;;;;;18.70;99.90;;;;;;5087103;28;19951;-74
2023/09/23 13:34:44;;;;;;;;;;;19.00;99.90;;;;;;5087041;28;19920;-73
2023/09/23 13:37:12;;;;;;;;;;;19.20;99.90;;;;;;5087678;28;19927;-74
2023/09/23 13:39:39;;;;;;;;;;;19.30;99.90;;;;;;5087456;28;19927;-74
2023/09/23 13:42:08;;;;;;;;;;;19.40;99.90;;;;;;5087256;28;19992;-74
2023/09/23 13:44:34;;;;;;;;;;;19.50;99.90;;;;;;5089522;28;19926;-74
2023/09/23 13:47:01;;;;;;;;;;;19.70;99.90;;;;;;5087287;28;20191;-74
2023/09/23 13:49:28;;;;;;;;;;;19.80;99.90;;;;;;5087137;28;19924;-74
2023/09/23 13:51:54;;;;;;;;;;;19.80;99.90;;;;;;5089481;28;19983;-74
2023/09/23 13:54:22;;;;;;;;;;;19.60;99.90;;;;;;5087050;28;19920;-72
2023/09/23 13:56:49;;;;;;;;;;;19.40;99.90;;;;;;5086758;28;19952;-73
2023/09/23 13:59:16;;;;;;;;;;;19.10;99.90;;;;;;5086968;28;19979;-74
2023/09/23 14:01:42;;;;;;;;;;;18.80;99.90;;;;;;5088346;28;19920;-75
2023/09/23 14:04:11;;;;;;;;;;;18.50;99.90;;;;;;5086735;28;20114;-74
2023/09/23 14:06:38;;;;;;;;;;;18.20;99.90;;;;;;5086843;28;19920;-74
2023/09/23 14:09:04;;;;;;;;;;;18.10;99.90;;;;;;5087016;28;20121;-74
2023/09/23 14:11:33;;;;;;;;;;;17.80;99.90;;;;;;5086889;28;19966;-74
2023/09/23 14:14:03;;;;;;;;;;;17.70;99.90;;;;;;5086964;28;19920;-74
2023/09/23 14:16:29;;;;;;;;;;;17.60;99.90;;;;;;5086433;28;19924;-73
2023/09/23 14:18:57;;;;;;;;;;;17.40;99.90;;;;;;5092443;28;19996;-74